createdAt,value
2023-02-26T00:00:18.472Z,-2.08
2023-02-26T00:01:18.449Z,-2.12
2023-02-26T00:02:18.479Z,-2.15
2023-02-26T00:03:18.490Z,-2.13
2023-02-26T00:04:18.423Z,-2.05
2023-02-26T00:05:18.401Z,-2.13
2023-02-26T00:06:18.390Z,-2.08
2023-02-26T00:07:18.390Z,-2.13
2023-02-26T00:08:18.360Z,-2.15
2023-02-26T00:09:18.351Z,-2.16
2023-02-26T00:10:18.334Z,-2.18
2023-02-26T00:11:18.329Z,-2.13
2023-02-26T00:12:18.346Z,-2.16
2023-02-26T00:13:18.301Z,-2.16
2023-02-26T00:14:18.288Z,-2.15
2023-02-26T00:15:18.293Z,-2.18
2023-02-26T00:16:18.336Z,-2.16
2023-02-26T00:17:18.448Z,-2.21
2023-02-26T00:18:18.245Z,-2.23
2023-02-26T00:19:18.231Z,-2.23
2023-02-26T00:20:18.212Z,-2.28
2023-02-26T00:21:18.202Z,-2.37
2023-02-26T00:22:18.202Z,-2.40
2023-02-26T00:23:18.176Z,-2.40
2023-02-26T00:24:18.176Z,-2.38
2023-02-26T00:25:18.149Z,-2.37
2023-02-26T00:26:18.142Z,-2.25
2023-02-26T00:27:18.144Z,-2.23
2023-02-26T00:28:18.139Z,-2.22
2023-02-26T00:29:18.106Z,-2.18
2023-02-26T00:30:18.103Z,-2.15
2023-02-26T00:31:18.235Z,-2.12
2023-02-26T00:32:18.368Z,-2.10
2023-02-26T00:33:18.050Z,-2.10
2023-02-26T00:34:18.044Z,-2.13
2023-02-26T00:35:18.019Z,-2.13
2023-02-26T00:36:18.014Z,-2.15
2023-02-26T00:37:18.027Z,-2.21
2023-02-26T00:38:17.997Z,-2.26
2023-02-26T00:39:17.976Z,-2.25
2023-02-26T00:40:17.963Z,-2.21
2023-02-26T00:41:17.971Z,-2.28
2023-02-26T00:42:17.944Z,-2.35
2023-02-26T00:43:17.942Z,-2.30
2023-02-26T00:44:17.936Z,-2.37
2023-02-26T00:45:17.921Z,-2.34
2023-02-26T00:46:17.912Z,-2.45
2023-02-26T00:47:17.876Z,-2.48
2023-02-26T00:48:17.877Z,-2.48
2023-02-26T00:49:17.876Z,-2.50
2023-02-26T00:50:17.842Z,-2.47
2023-02-26T00:51:17.830Z,-2.41
2023-02-26T00:52:17.817Z,-2.40
2023-02-26T00:53:17.814Z,-2.40
2023-02-26T00:54:17.793Z,-2.25
2023-02-26T00:55:17.772Z,-2.23
2023-02-26T00:56:17.762Z,-2.22
2023-02-26T00:57:17.753Z,-2.15
2023-02-26T00:58:17.757Z,-2.10
2023-02-26T00:59:17.725Z,-2.12
2023-02-26T01:00:17.735Z,-2.02
2023-02-26T01:01:17.713Z,-2.02
2023-02-26T01:02:17.685Z,-2.02
2023-02-26T01:03:17.693Z,-1.98
2023-02-26T01:04:17.673Z,-2.00
2023-02-26T01:05:17.656Z,-1.98
2023-02-26T01:06:17.637Z,-2.05
2023-02-26T01:07:17.632Z,-2.01
2023-02-26T01:08:17.622Z,-2.05
2023-02-26T01:09:17.596Z,-2.13
2023-02-26T01:10:17.584Z,-2.15
2023-02-26T01:11:17.574Z,-2.16
2023-02-26T01:12:17.557Z,-2.19
2023-02-26T01:13:17.564Z,-2.19
2023-02-26T01:14:17.537Z,-2.28
2023-02-26T01:15:17.523Z,-2.34
2023-02-26T01:16:17.577Z,-2.34
2023-02-26T01:17:17.502Z,-2.38
2023-02-26T01:18:17.530Z,-2.40
2023-02-26T01:19:17.478Z,-2.40
2023-02-26T01:20:17.465Z,-2.37
2023-02-26T01:21:17.458Z,-2.34
2023-02-26T01:22:17.438Z,-2.41
2023-02-26T01:23:17.442Z,-2.44
2023-02-26T01:24:17.415Z,-2.45
2023-02-26T01:25:17.399Z,-2.53
2023-02-26T01:26:17.388Z,-2.53
2023-02-26T01:27:17.372Z,-2.56
2023-02-26T01:28:17.376Z,-2.59
2023-02-26T01:29:17.352Z,-2.62
2023-02-26T01:30:17.339Z,-2.65
2023-02-26T01:31:17.449Z,-2.73
2023-02-26T01:32:17.493Z,-2.76
2023-02-26T01:33:17.320Z,-2.80
2023-02-26T01:34:17.292Z,-2.80
2023-02-26T01:35:17.273Z,-2.83
2023-02-26T01:36:17.263Z,-2.83
2023-02-26T01:37:17.246Z,-2.78
2023-02-26T01:38:17.262Z,-2.83
2023-02-26T01:39:17.221Z,-2.81
2023-02-26T01:40:17.225Z,-2.83
2023-02-26T01:41:17.197Z,-2.78
2023-02-26T01:42:17.192Z,-2.83
2023-02-26T01:43:17.212Z,-2.81
2023-02-26T01:44:17.170Z,-2.81
2023-02-26T01:45:17.148Z,-2.77
2023-02-26T01:46:17.163Z,-2.78
2023-02-26T01:47:17.126Z,-2.78
2023-02-26T01:48:17.168Z,-2.78
2023-02-26T01:49:17.111Z,-2.78
2023-02-26T01:50:17.094Z,-2.76
2023-02-26T01:51:17.075Z,-2.76
2023-02-26T01:52:17.065Z,-2.73
2023-02-26T01:53:17.052Z,-2.80
2023-02-26T01:54:17.069Z,-2.81
2023-02-26T01:55:17.033Z,-2.81
2023-02-26T01:56:17.022Z,-2.84
2023-02-26T01:57:16.999Z,-2.88
2023-02-26T01:58:16.992Z,-2.89
2023-02-26T01:59:16.992Z,-2.89
2023-02-26T02:00:16.969Z,-2.91
2023-02-26T02:01:16.949Z,-3.01
2023-02-26T02:02:16.988Z,-2.98
2023-02-26T02:03:17.044Z,-2.97
2023-02-26T02:04:16.950Z,-2.94
2023-02-26T02:05:16.905Z,-2.95
2023-02-26T02:06:16.893Z,-2.97
2023-02-26T02:07:16.882Z,-3.04
2023-02-26T02:08:16.865Z,-3.07
2023-02-26T02:09:16.871Z,-3.04
2023-02-26T02:10:16.848Z,-3.10
2023-02-26T02:11:16.827Z,-3.09
2023-02-26T02:12:16.813Z,-3.09
2023-02-26T02:13:16.803Z,-3.09
2023-02-26T02:14:16.806Z,-3.10
2023-02-26T02:15:16.779Z,-3.12
2023-02-26T02:16:16.838Z,-3.15
2023-02-26T02:17:16.759Z,-3.13
2023-02-26T02:18:16.737Z,-3.16
2023-02-26T02:19:16.738Z,-3.10
2023-02-26T02:20:16.734Z,-3.10
2023-02-26T02:21:16.698Z,-3.10
2023-02-26T02:22:16.685Z,-3.13
2023-02-26T02:23:16.677Z,-3.09
2023-02-26T02:24:16.673Z,-3.12
2023-02-26T02:25:16.656Z,-3.10
2023-02-26T02:26:16.644Z,-3.09
2023-02-26T02:27:16.620Z,-3.09
2023-02-26T02:28:16.616Z,-3.07
2023-02-26T02:29:16.608Z,-3.09
2023-02-26T02:30:16.589Z,-3.10
2023-02-26T02:31:16.630Z,-3.12
2023-02-26T02:32:16.652Z,-3.12
2023-02-26T02:33:16.545Z,-3.13
2023-02-26T02:34:16.547Z,-3.10
2023-02-26T02:35:16.525Z,-3.12
2023-02-26T02:36:16.529Z,-3.07
2023-02-26T02:37:16.500Z,-3.12
2023-02-26T02:38:16.487Z,-3.12
2023-02-26T02:39:16.489Z,-3.13
2023-02-26T02:40:16.467Z,-3.15
2023-02-26T02:41:16.448Z,-3.19
2023-02-26T02:42:16.439Z,-3.20
2023-02-26T02:43:16.417Z,-3.22
2023-02-26T02:44:16.427Z,-3.22
2023-02-26T02:45:16.398Z,-3.25
2023-02-26T02:46:16.592Z,-3.25
2023-02-26T02:47:16.372Z,-3.25
2023-02-26T02:48:16.366Z,-3.25
2023-02-26T02:49:16.363Z,-3.28
2023-02-26T02:50:16.368Z,-3.27
2023-02-26T02:51:16.320Z,-3.27
2023-02-26T02:52:16.334Z,-3.23
2023-02-26T02:53:16.303Z,-3.23
2023-02-26T02:54:16.308Z,-3.28
2023-02-26T02:55:16.285Z,-3.27
2023-02-26T02:56:16.262Z,-3.27
2023-02-26T02:57:16.245Z,-3.33
2023-02-26T02:58:16.235Z,-3.31
2023-02-26T02:59:16.247Z,-3.35
2023-02-26T03:00:16.213Z,-3.35
2023-02-26T03:01:16.235Z,-3.34
2023-02-26T03:02:16.362Z,-3.33
2023-02-26T03:03:16.176Z,-3.34
2023-02-26T03:04:16.181Z,-3.34
2023-02-26T03:05:16.160Z,-3.33
2023-02-26T03:06:16.142Z,-3.35
2023-02-26T03:07:16.125Z,-3.34
2023-02-26T03:08:16.136Z,-3.31
2023-02-26T03:09:16.117Z,-3.30
2023-02-26T03:10:16.133Z,-3.27
2023-02-26T03:11:16.086Z,-3.30
2023-02-26T03:12:16.083Z,-3.27
2023-02-26T03:13:16.051Z,-3.20
2023-02-26T03:14:16.054Z,-3.25
2023-02-26T03:15:16.030Z,-3.19
2023-02-26T03:16:16.068Z,-3.20
2023-02-26T03:17:15.998Z,-3.16
2023-02-26T03:18:15.993Z,-3.22
2023-02-26T03:19:15.993Z,-3.16
2023-02-26T03:20:15.966Z,-3.16
2023-02-26T03:21:15.956Z,-3.16
2023-02-26T03:22:15.950Z,-3.10
2023-02-26T03:23:15.932Z,-3.06
2023-02-26T03:24:15.952Z,-3.06
2023-02-26T03:25:15.906Z,-3.01
2023-02-26T03:26:15.892Z,-3.07
2023-02-26T03:27:15.878Z,-3.02
2023-02-26T03:28:15.878Z,-3.10
2023-02-26T03:29:15.893Z,-3.09
2023-02-26T03:30:15.844Z,-3.13
2023-02-26T03:31:15.946Z,-3.17
2023-02-26T03:32:15.923Z,-3.17
2023-02-26T03:33:15.824Z,-3.16
2023-02-26T03:34:15.802Z,-3.17
2023-02-26T03:35:15.804Z,-3.22
2023-02-26T03:36:15.772Z,-3.23
2023-02-26T03:37:15.782Z,-3.28
2023-02-26T03:38:15.753Z,-3.25
2023-02-26T03:39:15.736Z,-3.19
2023-02-26T03:40:15.763Z,-3.22
2023-02-26T03:41:15.711Z,-3.27
2023-02-26T03:42:15.700Z,-3.22
2023-02-26T03:43:15.685Z,-3.27
2023-02-26T03:44:15.674Z,-3.27
2023-02-26T03:45:15.679Z,-3.27
2023-02-26T03:46:15.715Z,-3.28
2023-02-26T03:47:15.649Z,-3.27
2023-02-26T03:48:15.634Z,-3.27
2023-02-26T03:49:15.651Z,-3.31
2023-02-26T03:50:15.616Z,-3.34
2023-02-26T03:51:15.587Z,-3.33
2023-02-26T03:52:15.577Z,-3.34
2023-02-26T03:53:15.560Z,-3.31
2023-02-26T03:54:15.548Z,-3.33
2023-02-26T03:55:15.581Z,-3.30
2023-02-26T03:56:15.543Z,-3.31
2023-02-26T03:57:15.517Z,-3.34
2023-02-26T03:58:15.502Z,-3.37
2023-02-26T03:59:15.490Z,-3.38
2023-02-26T04:00:15.491Z,-3.35
2023-02-26T04:01:15.460Z,-3.40
2023-02-26T04:02:15.471Z,-3.44
2023-02-26T04:03:15.454Z,-3.46
2023-02-26T04:04:15.551Z,-3.45
2023-02-26T04:05:15.428Z,-3.44
2023-02-26T04:06:15.409Z,-3.46
2023-02-26T04:07:15.390Z,-3.49
2023-02-26T04:08:15.372Z,-3.48
2023-02-26T04:09:16.256Z,-3.54
2023-02-26T04:10:15.363Z,-3.52
2023-02-26T04:11:15.348Z,-3.55
2023-02-26T04:12:15.459Z,-3.58
2023-02-26T04:13:15.334Z,-3.54
2023-02-26T04:14:15.302Z,-3.58
2023-02-26T04:15:15.307Z,-3.59
2023-02-26T04:16:15.316Z,-3.59
2023-02-26T04:17:15.264Z,-3.58
2023-02-26T04:18:15.252Z,-3.59
2023-02-26T04:19:15.247Z,-3.63
2023-02-26T04:20:15.243Z,-3.72
2023-02-26T04:21:15.230Z,-3.74
2023-02-26T04:22:15.201Z,-3.78
2023-02-26T04:23:15.188Z,-3.77
2023-02-26T04:24:15.176Z,-3.77
2023-02-26T04:25:15.180Z,-3.75
2023-02-26T04:26:15.153Z,-3.75
2023-02-26T04:27:15.142Z,-3.74
2023-02-26T04:28:15.152Z,-3.72
2023-02-26T04:29:15.116Z,-3.74
2023-02-26T04:30:15.119Z,-3.69
2023-02-26T04:31:15.208Z,-3.61
2023-02-26T04:32:15.306Z,-3.56
2023-02-26T04:33:15.068Z,-3.52
2023-02-26T04:34:15.047Z,-3.55
2023-02-26T04:35:15.062Z,-3.49
2023-02-26T04:36:15.020Z,-3.49
2023-02-26T04:37:15.008Z,-3.44
2023-02-26T04:38:14.998Z,-3.46
2023-02-26T04:39:14.990Z,-3.51
2023-02-26T04:40:15.013Z,-3.51
2023-02-26T04:41:14.978Z,-3.51
2023-02-26T04:42:14.948Z,-3.54
2023-02-26T04:43:14.939Z,-3.46
2023-02-26T04:44:14.950Z,-3.48
2023-02-26T04:45:14.914Z,-3.46
2023-02-26T04:46:15.003Z,-3.38
2023-02-26T04:47:14.899Z,-3.45
2023-02-26T04:48:14.871Z,-3.41
2023-02-26T04:49:14.857Z,-3.45
2023-02-26T04:50:14.856Z,-3.45
2023-02-26T04:51:14.851Z,-3.44
2023-02-26T04:52:14.890Z,-3.44
2023-02-26T04:53:14.813Z,-3.41
2023-02-26T04:54:14.798Z,-3.38
2023-02-26T04:55:14.795Z,-3.33
2023-02-26T04:56:14.794Z,-3.31
2023-02-26T04:57:14.761Z,-3.28
2023-02-26T04:58:14.746Z,-3.28
2023-02-26T04:59:14.742Z,-3.25
2023-02-26T05:00:14.740Z,-3.25
2023-02-26T05:01:14.856Z,-3.30
2023-02-26T05:02:14.699Z,-3.31
2023-02-26T05:03:14.686Z,-3.31
2023-02-26T05:04:14.730Z,-3.30
2023-02-26T05:05:14.664Z,-3.27
2023-02-26T05:06:14.676Z,-3.27
2023-02-26T05:07:14.636Z,-3.25
2023-02-26T05:08:14.630Z,-3.16
2023-02-26T05:09:14.615Z,-3.16
2023-02-26T05:10:14.605Z,-3.17
2023-02-26T05:11:14.605Z,-3.07
2023-02-26T05:12:14.582Z,-3.07
2023-02-26T05:13:14.578Z,-2.97
2023-02-26T05:14:14.554Z,-2.94
2023-02-26T05:15:14.542Z,-2.81
2023-02-26T05:16:14.629Z,-2.81
2023-02-26T05:17:14.524Z,-2.83
2023-02-26T05:18:14.539Z,-2.76
2023-02-26T05:19:14.492Z,-2.70
2023-02-26T05:20:14.477Z,-2.63
2023-02-26T05:21:14.493Z,-2.62
2023-02-26T05:22:14.456Z,-2.59
2023-02-26T05:23:14.448Z,-2.56
2023-02-26T05:24:14.431Z,-2.56
2023-02-26T05:25:14.430Z,-2.48
2023-02-26T05:26:14.417Z,-2.52
2023-02-26T05:27:14.395Z,-2.50
2023-02-26T05:28:14.381Z,-2.47
2023-02-26T05:29:14.373Z,-2.45
2023-02-26T05:30:14.353Z,-2.44
2023-02-26T05:31:14.382Z,-2.47
2023-02-26T05:32:14.381Z,-2.44
2023-02-26T05:33:14.324Z,-2.44
2023-02-26T05:34:14.309Z,-2.44
2023-02-26T05:35:14.295Z,-2.44
2023-02-26T05:36:14.297Z,-2.45
2023-02-26T05:37:14.267Z,-2.48
2023-02-26T05:38:14.256Z,-2.47
2023-02-26T05:39:14.240Z,-2.47
2023-02-26T05:40:14.227Z,-2.45
2023-02-26T05:41:14.232Z,-2.48
2023-02-26T05:42:14.202Z,-2.44
2023-02-26T05:43:14.195Z,-2.41
2023-02-26T05:44:14.185Z,-2.37
2023-02-26T05:45:14.173Z,-2.26
2023-02-26T05:46:14.236Z,-2.21
2023-02-26T05:47:14.145Z,-2.21
2023-02-26T05:48:14.148Z,-2.21
2023-02-26T05:49:14.127Z,-2.16
2023-02-26T05:50:14.119Z,-2.16
2023-02-26T05:51:14.134Z,-2.10
2023-02-26T05:52:14.082Z,-2.10
2023-02-26T05:53:14.070Z,-2.08
2023-02-26T05:54:14.065Z,-2.12
2023-02-26T05:55:14.048Z,-2.07
2023-02-26T05:56:14.732Z,-2.05
2023-02-26T05:57:14.040Z,-2.04
2023-02-26T05:58:14.003Z,-2.02
2023-02-26T05:59:13.989Z,-2.01
2023-02-26T06:00:13.976Z,-2.02
2023-02-26T06:01:13.968Z,-2.02
2023-02-26T06:02:14.091Z,-2.01
2023-02-26T06:03:13.976Z,-1.97
2023-02-26T06:04:13.947Z,-1.98
2023-02-26T06:05:13.915Z,-2.00
2023-02-26T06:06:13.896Z,-2.00
2023-02-26T06:07:13.909Z,-2.00
2023-02-26T06:08:13.884Z,-2.01
2023-02-26T06:09:13.863Z,-2.01
2023-02-26T06:10:13.853Z,-2.00
2023-02-26T06:11:13.842Z,-1.95
2023-02-26T06:12:13.848Z,-1.95
2023-02-26T06:13:13.822Z,-1.94
2023-02-26T06:14:13.803Z,-1.94
2023-02-26T06:15:13.790Z,-1.87
2023-02-26T06:16:13.816Z,-1.90
2023-02-26T06:17:13.779Z,-1.86
2023-02-26T06:18:13.810Z,-1.84
2023-02-26T06:19:13.739Z,-1.84
2023-02-26T06:20:13.753Z,-1.79
2023-02-26T06:21:13.717Z,-1.79
2023-02-26T06:22:13.715Z,-1.80
2023-02-26T06:23:13.695Z,-1.82
2023-02-26T06:24:13.694Z,-1.80
2023-02-26T06:25:13.686Z,-1.77
2023-02-26T06:26:13.654Z,-1.72
2023-02-26T06:27:13.678Z,-1.69
2023-02-26T06:28:13.631Z,-1.71
2023-02-26T06:29:13.614Z,-1.66
2023-02-26T06:30:13.603Z,-1.65
2023-02-26T06:31:13.619Z,-1.61
2023-02-26T06:32:13.807Z,-1.66
2023-02-26T06:33:13.572Z,-1.62
2023-02-26T06:34:13.551Z,-1.66
2023-02-26T06:35:13.547Z,-1.65
2023-02-26T06:36:13.598Z,-1.64
2023-02-26T06:37:13.564Z,-1.59
2023-02-26T06:38:13.513Z,-1.59
2023-02-26T06:39:13.512Z,-1.54
2023-02-26T06:40:13.484Z,-1.48
2023-02-26T06:41:13.476Z,-1.50
2023-02-26T06:42:13.483Z,-1.50
2023-02-26T06:43:13.459Z,-1.43
2023-02-26T06:44:13.428Z,-1.44
2023-02-26T06:45:13.420Z,-1.43
2023-02-26T06:46:13.455Z,-1.37
2023-02-26T06:47:13.401Z,-1.33
2023-02-26T06:48:13.401Z,-1.29
2023-02-26T06:49:13.372Z,-1.26
2023-02-26T06:50:13.357Z,-1.23
2023-02-26T06:51:13.354Z,-1.20
2023-02-26T06:52:13.369Z,-1.23
2023-02-26T06:53:13.337Z,-1.15
2023-02-26T06:54:13.305Z,-1.08
2023-02-26T06:55:13.300Z,-1.04
2023-02-26T06:56:13.284Z,-0.93
2023-02-26T06:57:13.276Z,-0.86
2023-02-26T06:58:13.273Z,-0.77
2023-02-26T06:59:13.246Z,-0.71
2023-02-26T07:00:13.364Z,-0.62
2023-02-26T07:01:13.281Z,-0.57
2023-02-26T07:02:13.233Z,-0.50
2023-02-26T07:03:13.234Z,-0.56
2023-02-26T07:04:13.188Z,-0.46
2023-02-26T07:05:13.176Z,-0.41
2023-02-26T07:06:26.432Z,-0.38
2023-02-26T07:07:13.154Z,-0.23
2023-02-26T07:08:13.168Z,-0.15
2023-02-26T07:09:13.150Z,-0.06
2023-02-26T07:10:13.107Z,0.03
2023-02-26T07:11:13.103Z,0.12
2023-02-26T07:12:13.109Z,0.34
2023-02-26T07:13:13.085Z,0.40
2023-02-26T07:14:13.055Z,0.92
2023-02-26T07:15:13.043Z,1.38
2023-02-26T07:16:13.037Z,2.56
2023-02-26T07:17:13.025Z,3.66
2023-02-26T07:18:13.014Z,4.31
2023-02-26T07:19:12.991Z,4.62
2023-02-26T07:20:13.011Z,5.38
2023-02-26T07:21:12.969Z,5.98
2023-02-26T07:22:12.949Z,5.72
2023-02-26T07:23:12.958Z,5.91
2023-02-26T07:24:12.979Z,5.82
2023-02-26T07:25:12.924Z,5.38
2023-02-26T07:26:12.912Z,4.92
2023-02-26T07:27:12.885Z,4.55
2023-02-26T07:28:12.942Z,4.08
2023-02-26T07:29:12.867Z,3.66
2023-02-26T07:30:12.860Z,3.31
2023-02-26T07:31:13.000Z,2.92
2023-02-26T07:32:13.007Z,2.77
2023-02-26T07:33:13.815Z,2.57
2023-02-26T07:34:12.796Z,2.49
2023-02-26T07:35:12.795Z,2.51
2023-02-26T07:36:12.785Z,2.25
2023-02-26T07:37:12.756Z,2.11
2023-02-26T07:38:12.763Z,2.07
2023-02-26T07:39:12.731Z,1.92
2023-02-26T07:40:12.765Z,1.85
2023-02-26T07:41:12.702Z,1.66
2023-02-26T07:42:12.750Z,1.70
2023-02-26T07:43:12.694Z,1.80
2023-02-26T07:44:12.665Z,2.13
2023-02-26T07:45:12.655Z,2.57
2023-02-26T07:46:12.687Z,3.91
2023-02-26T07:47:12.625Z,4.59
2023-02-26T07:48:12.618Z,5.35
2023-02-26T07:49:12.612Z,5.98
2023-02-26T07:50:12.592Z,5.99
2023-02-26T07:51:12.589Z,6.99
2023-02-26T07:52:12.563Z,6.93
2023-02-26T07:53:12.553Z,6.97
2023-02-26T07:54:12.549Z,7.02
2023-02-26T07:55:12.597Z,7.51
2023-02-26T07:56:12.525Z,7.83
2023-02-26T07:57:12.500Z,7.03
2023-02-26T07:58:12.478Z,7.06
2023-02-26T07:59:12.487Z,6.77
2023-02-26T08:00:12.514Z,6.11
2023-02-26T08:01:12.459Z,5.79
2023-02-26T08:02:12.427Z,4.96
2023-02-26T08:03:12.411Z,4.50
2023-02-26T08:04:12.436Z,4.17
2023-02-26T08:05:12.404Z,4.35
2023-02-26T08:06:12.376Z,3.98
2023-02-26T08:07:12.361Z,3.88
2023-02-26T08:08:12.345Z,4.55
2023-02-26T08:09:12.354Z,4.38
2023-02-26T08:10:12.352Z,4.19
2023-02-26T08:11:12.326Z,4.14
2023-02-26T08:12:12.317Z,4.23
2023-02-26T08:13:12.291Z,4.74
2023-02-26T08:14:12.287Z,4.67
2023-02-26T08:15:12.339Z,4.24
2023-02-26T08:16:12.314Z,3.84
2023-02-26T08:17:12.235Z,3.60
2023-02-26T08:18:12.223Z,3.51
2023-02-26T08:19:12.235Z,3.48
2023-02-26T08:20:12.223Z,3.66
2023-02-26T08:21:12.189Z,3.45
2023-02-26T08:22:12.162Z,3.23
2023-02-26T08:23:12.148Z,3.16
2023-02-26T08:24:12.155Z,3.07
2023-02-26T08:25:12.271Z,3.03
2023-02-26T08:26:12.117Z,2.90
2023-02-26T08:27:13.614Z,2.77
2023-02-26T08:28:12.108Z,2.65
2023-02-26T08:29:12.088Z,2.69
2023-02-26T08:30:12.224Z,2.71
2023-02-26T08:31:12.111Z,2.68
2023-02-26T08:32:12.140Z,2.67
2023-02-26T08:33:12.033Z,2.85
2023-02-26T08:34:12.026Z,2.98
2023-02-26T08:35:12.141Z,3.31
2023-02-26T08:36:11.993Z,3.40
2023-02-26T08:37:11.969Z,3.45
2023-02-26T08:38:11.968Z,3.32
2023-02-26T08:39:11.961Z,3.37
2023-02-26T08:40:14.788Z,3.47
2023-02-26T08:41:11.909Z,3.40
2023-02-26T08:42:11.912Z,3.22
2023-02-26T08:43:11.896Z,3.53
2023-02-26T08:44:11.963Z,3.51
2023-02-26T08:45:11.999Z,3.50
2023-02-26T08:46:11.875Z,3.44
2023-02-26T08:47:13.606Z,3.25
2023-02-26T08:48:11.845Z,3.11
2023-02-26T08:49:11.820Z,3.18
2023-02-26T08:50:11.973Z,3.28
2023-02-26T08:51:11.791Z,3.34
2023-02-26T08:52:11.774Z,3.23
2023-02-26T08:53:11.760Z,3.08
2023-02-26T08:54:11.752Z,3.00
2023-02-26T08:55:11.744Z,2.90
2023-02-26T08:56:11.720Z,2.86
2023-02-26T08:57:11.720Z,2.82
2023-02-26T08:58:11.708Z,2.85
2023-02-26T08:59:13.347Z,3.00
2023-02-26T09:00:23.036Z,3.11
2023-02-26T09:01:11.654Z,3.16
2023-02-26T09:02:11.744Z,3.08
2023-02-26T09:03:11.713Z,2.92
2023-02-26T09:04:11.617Z,2.89
2023-02-26T09:05:11.627Z,2.92
2023-02-26T09:06:11.588Z,3.07
2023-02-26T09:07:11.575Z,3.04
2023-02-26T09:08:11.582Z,2.98
2023-02-26T09:09:11.547Z,2.97
2023-02-26T09:10:11.565Z,2.89
2023-02-26T09:11:11.521Z,2.95
2023-02-26T09:12:11.510Z,3.08
2023-02-26T09:13:11.496Z,3.05
2023-02-26T09:14:11.484Z,3.22
2023-02-26T09:15:11.501Z,3.41
2023-02-26T09:16:11.501Z,3.25
2023-02-26T09:17:11.443Z,3.29
2023-02-26T09:18:11.449Z,3.34
2023-02-26T09:19:11.520Z,3.41
2023-02-26T09:20:11.430Z,3.50
2023-02-26T09:21:11.462Z,5.39
2023-02-26T09:22:11.380Z,6.52
2023-02-26T09:23:11.364Z,6.77
2023-02-26T09:24:11.352Z,6.57
2023-02-26T09:25:11.364Z,6.30
2023-02-26T09:26:11.322Z,5.76
2023-02-26T09:27:11.307Z,5.28
2023-02-26T09:28:11.350Z,4.74
2023-02-26T09:29:11.285Z,4.62
2023-02-26T09:30:11.442Z,4.60
2023-02-26T09:31:11.326Z,4.66
2023-02-26T09:32:11.343Z,4.26
2023-02-26T09:33:11.234Z,4.63
2023-02-26T09:34:11.699Z,5.02
2023-02-26T09:35:11.225Z,4.78
2023-02-26T09:36:11.203Z,4.58
2023-02-26T09:37:11.179Z,4.62
2023-02-26T09:38:11.178Z,4.66
2023-02-26T09:39:11.159Z,4.62
2023-02-26T09:40:11.156Z,4.99
2023-02-26T09:41:11.128Z,5.75
2023-02-26T09:42:11.124Z,5.26
2023-02-26T09:43:11.099Z,5.39
2023-02-26T09:44:11.091Z,5.43
2023-02-26T09:45:11.085Z,5.46
2023-02-26T09:46:11.114Z,6.51
2023-02-26T09:47:11.050Z,7.60
2023-02-26T09:48:11.065Z,6.67
2023-02-26T09:49:11.025Z,6.16
2023-02-26T09:50:11.028Z,6.60
2023-02-26T09:51:11.028Z,5.90
2023-02-26T09:52:10.991Z,6.82
2023-02-26T09:53:10.965Z,7.88
2023-02-26T09:54:10.986Z,8.97
2023-02-26T09:55:10.959Z,9.40
2023-02-26T09:56:10.933Z,10.16
2023-02-26T09:57:10.919Z,9.18
2023-02-26T09:58:10.902Z,9.48
2023-02-26T09:59:10.909Z,10.22
2023-02-26T10:00:10.881Z,10.79
2023-02-26T10:01:10.880Z,11.59
2023-02-26T10:02:10.871Z,11.51
2023-02-26T10:03:10.843Z,11.87
2023-02-26T10:04:10.920Z,11.86
2023-02-26T10:05:10.815Z,10.59
2023-02-26T10:06:10.815Z,10.49
2023-02-26T10:07:10.783Z,10.63
2023-02-26T10:08:10.777Z,10.05
2023-02-26T10:09:10.765Z,10.34
2023-02-26T10:10:10.748Z,10.63
2023-02-26T10:11:10.746Z,10.78
2023-02-26T10:12:10.720Z,10.20
2023-02-26T10:13:10.710Z,10.71
2023-02-26T10:14:10.696Z,10.26
2023-02-26T10:15:10.684Z,10.48
2023-02-26T10:16:12.516Z,11.04
2023-02-26T10:17:10.665Z,11.65
2023-02-26T10:18:10.644Z,11.87
2023-02-26T10:19:10.627Z,11.66
2023-02-26T10:20:10.645Z,12.17
2023-02-26T10:21:10.637Z,12.87
2023-02-26T10:22:10.590Z,13.49
2023-02-26T10:23:10.573Z,13.68
2023-02-26T10:24:10.561Z,14.08
2023-02-26T10:25:10.548Z,13.71
2023-02-26T10:26:10.550Z,13.67
2023-02-26T10:27:10.528Z,14.00
2023-02-26T10:28:10.515Z,14.20
2023-02-26T10:29:10.495Z,14.00
2023-02-26T10:30:10.486Z,14.22
2023-02-26T10:31:10.542Z,14.81
2023-02-26T10:32:10.550Z,15.14
2023-02-26T10:33:10.439Z,14.44
2023-02-26T10:34:10.429Z,14.18
2023-02-26T10:35:10.421Z,14.53
2023-02-26T10:36:10.440Z,14.69
2023-02-26T10:37:10.389Z,14.82
2023-02-26T10:38:10.371Z,15.36
2023-02-26T10:39:10.358Z,15.61
2023-02-26T10:40:10.343Z,13.49
2023-02-26T10:41:10.348Z,12.28
2023-02-26T10:42:10.327Z,11.75
2023-02-26T10:43:10.314Z,11.62
2023-02-26T10:44:10.297Z,13.27
2023-02-26T10:45:10.279Z,13.96
2023-02-26T10:46:10.613Z,12.86
2023-02-26T10:47:10.262Z,12.42
2023-02-26T10:48:10.257Z,13.05
2023-02-26T10:49:10.234Z,13.20
2023-02-26T10:50:10.218Z,14.55
2023-02-26T10:51:10.230Z,15.58
2023-02-26T10:52:10.214Z,16.26
2023-02-26T10:53:10.178Z,15.98
2023-02-26T10:54:10.175Z,14.84
2023-02-26T10:55:10.148Z,14.04
2023-02-26T10:56:10.155Z,13.08
2023-02-26T10:57:10.128Z,12.03
2023-02-26T10:58:10.114Z,11.30
2023-02-26T10:59:10.096Z,10.86
2023-02-26T11:00:10.083Z,10.23
2023-02-26T11:01:10.170Z,9.89
2023-02-26T11:02:10.115Z,9.44
2023-02-26T11:03:10.046Z,8.95
2023-02-26T11:04:10.032Z,8.51
2023-02-26T11:05:10.022Z,8.13
2023-02-26T11:06:10.032Z,7.90
2023-02-26T11:07:09.996Z,7.79
2023-02-26T11:08:10.025Z,7.70
2023-02-26T11:09:09.975Z,7.54
2023-02-26T11:10:09.960Z,7.33
2023-02-26T11:11:09.963Z,7.15
2023-02-26T11:12:09.946Z,6.99
2023-02-26T11:13:09.915Z,6.95
2023-02-26T11:14:09.903Z,6.81
2023-02-26T11:15:09.898Z,6.95
2023-02-26T11:16:09.948Z,6.99
2023-02-26T11:17:09.867Z,7.00
2023-02-26T11:18:09.850Z,6.78
2023-02-26T11:19:09.834Z,6.78
2023-02-26T11:20:09.831Z,6.84
2023-02-26T11:21:09.811Z,6.93
2023-02-26T11:22:09.877Z,6.97
2023-02-26T11:23:09.782Z,6.77
2023-02-26T11:24:09.808Z,6.70
2023-02-26T11:25:09.764Z,6.54
2023-02-26T11:26:09.751Z,6.51
2023-02-26T11:27:09.743Z,6.46
2023-02-26T11:28:09.719Z,6.49
2023-02-26T11:29:09.706Z,6.39
2023-02-26T11:30:09.694Z,6.41
2023-02-26T11:31:09.769Z,6.39
2023-02-26T11:32:09.852Z,6.46
2023-02-26T11:33:09.653Z,6.49
2023-02-26T11:34:09.680Z,6.41
2023-02-26T11:35:09.651Z,6.33
2023-02-26T11:36:09.617Z,6.04
2023-02-26T11:37:09.625Z,5.97
2023-02-26T11:38:09.608Z,5.99
2023-02-26T11:39:09.585Z,5.97
2023-02-26T11:40:09.579Z,5.94
2023-02-26T11:41:09.550Z,5.97
2023-02-26T11:42:09.553Z,6.27
2023-02-26T11:43:09.524Z,6.41
2023-02-26T11:44:09.541Z,6.89
2023-02-26T11:45:09.501Z,7.35
2023-02-26T11:46:09.672Z,7.36
2023-02-26T11:47:09.487Z,7.50
2023-02-26T11:48:09.454Z,7.42
2023-02-26T11:49:09.446Z,7.45
2023-02-26T11:50:09.451Z,7.33
2023-02-26T11:51:09.413Z,7.32
2023-02-26T11:52:09.417Z,7.03
2023-02-26T11:53:09.389Z,6.97
2023-02-26T11:54:09.377Z,7.10
2023-02-26T11:55:09.360Z,7.05
2023-02-26T11:56:09.366Z,6.92
2023-02-26T11:57:09.346Z,6.69
2023-02-26T11:58:09.318Z,6.69
2023-02-26T11:59:09.302Z,6.78
2023-02-26T12:00:09.294Z,6.59
2023-02-26T12:01:09.271Z,6.59
2023-02-26T12:02:09.275Z,6.51
2023-02-26T12:03:09.248Z,6.51
2023-02-26T12:04:09.236Z,6.45
2023-02-26T12:05:09.218Z,6.12
2023-02-26T12:06:09.206Z,6.12
2023-02-26T12:07:09.211Z,6.16
2023-02-26T12:08:09.208Z,6.20
2023-02-26T12:09:09.173Z,6.30
2023-02-26T12:10:09.173Z,6.46
2023-02-26T12:11:09.147Z,6.69
2023-02-26T12:12:09.195Z,6.67
2023-02-26T12:13:09.122Z,6.57
2023-02-26T12:14:09.114Z,6.62
2023-02-26T12:15:09.092Z,6.60
2023-02-26T12:16:09.107Z,6.59
2023-02-26T12:17:09.079Z,6.66
2023-02-26T12:18:09.052Z,6.95
2023-02-26T12:19:09.040Z,7.07
2023-02-26T12:20:09.026Z,6.95
2023-02-26T12:21:09.015Z,6.93
2023-02-26T12:22:09.023Z,6.77
2023-02-26T12:23:08.982Z,6.59
2023-02-26T12:24:09.016Z,6.56
2023-02-26T12:25:08.961Z,6.46
2023-02-26T12:26:08.948Z,6.36
2023-02-26T12:27:08.931Z,6.27
2023-02-26T12:28:08.958Z,6.16
2023-02-26T12:29:08.916Z,6.14
2023-02-26T12:30:08.897Z,6.30
2023-02-26T12:31:09.025Z,6.24
2023-02-26T12:32:09.036Z,6.04
2023-02-26T12:33:08.871Z,6.09
2023-02-26T12:34:08.846Z,6.26
2023-02-26T12:35:08.869Z,6.36
2023-02-26T12:36:08.817Z,6.44
2023-02-26T12:37:08.809Z,6.52
2023-02-26T12:38:08.813Z,6.66
2023-02-26T12:39:08.883Z,6.69
2023-02-26T12:40:11.797Z,6.45
2023-02-26T12:41:08.775Z,6.38
2023-02-26T12:42:08.744Z,6.36
2023-02-26T12:43:08.756Z,6.02
2023-02-26T12:44:08.747Z,5.89
2023-02-26T12:45:08.705Z,5.79
2023-02-26T12:46:08.691Z,5.72
2023-02-26T12:47:08.677Z,5.80
2023-02-26T12:48:08.677Z,5.93
2023-02-26T12:49:08.652Z,6.01
2023-02-26T12:50:08.636Z,6.16
2023-02-26T12:51:08.624Z,6.07
2023-02-26T12:52:08.609Z,6.01
2023-02-26T12:53:08.616Z,6.38
2023-02-26T12:54:08.584Z,6.45
2023-02-26T12:55:08.575Z,6.36
2023-02-26T12:56:08.561Z,6.35
2023-02-26T12:57:08.541Z,6.16
2023-02-26T12:58:08.550Z,5.98
2023-02-26T12:59:08.520Z,5.68
2023-02-26T13:00:08.518Z,5.51
2023-02-26T13:01:08.524Z,5.43
2023-02-26T13:02:08.477Z,5.33